createdAt,value
2019-05-03T00:02:41.710Z,11.22
2019-05-03T00:05:21.494Z,11.24
2019-05-03T00:07:53.257Z,11.10
2019-05-03T00:10:23.717Z,11.06
2019-05-03T00:12:54.209Z,11.06
2019-05-03T00:15:35.072Z,10.99
2019-05-03T00:18:05.601Z,10.91
2019-05-03T00:20:36.056Z,10.90
2019-05-03T00:23:06.453Z,10.84
2019-05-03T00:25:37.063Z,10.79
2019-05-03T00:28:07.499Z,10.73
2019-05-03T00:30:38.179Z,10.65
2019-05-03T00:33:08.663Z,10.63
2019-05-03T00:35:46.663Z,10.51
2019-05-03T00:38:17.112Z,10.46
2019-05-03T00:40:47.618Z,10.35
2019-05-03T00:43:18.146Z,10.26
2019-05-03T00:45:48.656Z,10.27
2019-05-03T00:48:21.964Z,10.28
2019-05-03T00:50:53.148Z,10.37
2019-05-03T00:53:24.675Z,10.45
2019-05-03T00:55:56.154Z,10.46
2019-05-03T00:58:26.650Z,10.21
2019-05-03T01:00:57.111Z,10.21
2019-05-03T01:03:27.624Z,10.24
2019-05-03T01:05:58.058Z,10.07
2019-05-03T01:08:28.573Z,9.96
2019-05-03T01:11:01.993Z,9.94
2019-05-03T01:13:32.242Z,9.93
2019-05-03T01:16:07.349Z,9.93
2019-05-03T01:18:37.841Z,9.93
2019-05-03T01:21:08.320Z,9.88
2019-05-03T01:23:38.883Z,9.94
2019-05-03T01:26:09.441Z,9.95
2019-05-03T01:28:40.014Z,9.91
2019-05-03T01:31:12.001Z,9.91
2019-05-03T01:33:42.682Z,9.87
2019-05-03T01:36:13.127Z,9.86
2019-05-03T01:38:43.963Z,9.98
2019-05-03T01:41:14.492Z,10.00
2019-05-03T01:43:45.107Z,10.15
2019-05-03T01:46:15.612Z,10.09
2019-05-03T01:48:54.984Z,10.11
2019-05-03T01:51:33.380Z,10.00
2019-05-03T01:54:03.826Z,9.98
2019-05-03T01:56:34.344Z,10.01
2019-05-03T01:59:05.198Z,9.98
2019-05-03T02:01:43.373Z,9.90
2019-05-03T02:04:21.644Z,9.89
2019-05-03T02:06:52.358Z,10.01
2019-05-03T02:09:22.849Z,10.18
2019-05-03T02:11:53.270Z,10.23
2019-05-03T02:14:23.782Z,10.32
2019-05-03T02:16:54.281Z,10.36
2019-05-03T02:19:25.755Z,10.46
2019-05-03T02:21:56.327Z,10.42
2019-05-03T02:24:26.804Z,10.49
2019-05-03T02:26:57.405Z,10.56
2019-05-03T02:29:27.905Z,10.60
2019-05-03T02:32:02.966Z,10.68
2019-05-03T02:34:34.291Z,10.62
2019-05-03T02:37:04.804Z,10.69
2019-05-03T02:39:35.289Z,10.71
2019-05-03T02:42:11.009Z,10.72
2019-05-03T02:44:38.971Z,10.72
2019-05-03T02:47:17.936Z,10.69
2019-05-03T02:49:50.133Z,10.73
2019-05-03T02:52:36.595Z,10.77
2019-05-03T02:55:07.395Z,10.71
2019-05-03T02:57:37.865Z,10.84
2019-05-03T03:00:09.625Z,10.83
2019-05-03T03:02:40.225Z,10.93
2019-05-03T03:05:11.263Z,11.11
2019-05-03T03:07:45.741Z,11.25
2019-05-03T03:10:16.214Z,11.33
2019-05-03T03:12:49.399Z,11.44
2019-05-03T03:15:19.943Z,11.48
2019-05-03T03:17:52.010Z,11.50
2019-05-03T03:20:25.272Z,11.52
2019-05-03T03:22:56.099Z,11.65
2019-05-03T03:25:29.587Z,11.73
2019-05-03T03:28:01.564Z,11.70
2019-05-03T03:30:57.475Z,11.74
2019-05-03T03:33:29.860Z,11.73
2019-05-03T03:36:29.315Z,11.84
2019-05-03T03:38:35.136Z,11.70
2019-05-03T03:41:06.203Z,11.94
2019-05-03T03:43:37.122Z,11.90
2019-05-03T03:46:08.892Z,12.21
2019-05-03T03:48:40.812Z,12.66
2019-05-03T03:51:12.189Z,12.97
2019-05-03T03:53:46.535Z,13.36
2019-05-03T03:56:16.352Z,13.52
2019-05-03T03:58:47.025Z,13.93
2019-05-03T04:01:17.986Z,14.01
2019-05-03T04:03:48.762Z,14.40
2019-05-03T04:06:20.462Z,14.70
2019-05-03T04:08:52.504Z,14.75
2019-05-03T04:11:22.965Z,15.13
2019-05-03T04:13:55.922Z,15.48
2019-05-03T04:16:27.766Z,15.78
2019-05-03T04:19:05.778Z,15.81
2019-05-03T04:21:37.142Z,16.51
2019-05-03T04:24:07.634Z,16.82
2019-05-03T04:26:38.106Z,17.07
2019-05-03T04:29:09.636Z,17.82
2019-05-03T04:31:40.232Z,17.94
2019-05-03T04:34:15.983Z,18.29
2019-05-03T04:36:46.141Z,18.96
2019-05-03T04:39:20.268Z,18.88
2019-05-03T04:41:49.901Z,19.52
2019-05-03T04:44:20.482Z,19.51
2019-05-03T04:46:51.002Z,19.89
2019-05-03T04:49:21.539Z,20.00
2019-05-03T04:51:55.917Z,20.27
2019-05-03T04:54:28.754Z,20.39
2019-05-03T04:56:59.278Z,20.62
2019-05-03T04:59:29.793Z,21.02
2019-05-03T05:02:00.319Z,21.01
2019-05-03T05:04:30.785Z,21.26
2019-05-03T05:07:01.339Z,21.28
2019-05-03T05:09:31.798Z,22.12
2019-05-03T05:12:02.304Z,20.75
2019-05-03T05:14:35.053Z,20.66
2019-05-03T05:17:06.391Z,20.08
2019-05-03T05:19:44.488Z,20.39
2019-05-03T05:22:16.115Z,20.11
2019-05-03T05:24:46.739Z,20.14
2019-05-03T05:27:18.938Z,20.08
2019-05-03T05:29:51.467Z,20.35
2019-05-03T05:32:22.038Z,20.43
2019-05-03T05:34:52.683Z,20.67
2019-05-03T05:37:24.835Z,20.91
2019-05-03T05:39:55.275Z,21.05
2019-05-03T05:42:25.794Z,20.70
2019-05-03T05:44:56.271Z,21.43
2019-05-03T05:47:28.536Z,21.35
2019-05-03T05:50:04.976Z,22.12
2019-05-03T05:52:36.646Z,22.31
2019-05-03T05:55:11.520Z,23.54
2019-05-03T05:57:47.813Z,22.96
2019-05-03T06:00:35.937Z,23.82
2019-05-03T06:03:06.554Z,24.29
2019-05-03T06:05:37.060Z,24.83
2019-05-03T06:08:15.171Z,24.92
2019-05-03T06:10:56.293Z,25.08
2019-05-03T06:13:28.692Z,25.22
2019-05-03T06:16:06.801Z,25.57
2019-05-03T06:18:38.850Z,25.58
2019-05-03T06:21:27.234Z,25.04
2019-05-03T06:23:59.730Z,25.51
2019-05-03T06:26:37.912Z,25.57
2019-05-03T06:29:09.477Z,25.46
2019-05-03T06:31:58.146Z,25.61
2019-05-03T06:34:30.717Z,25.74
2019-05-03T06:37:05.849Z,26.03
2019-05-03T06:39:36.279Z,25.43
2019-05-03T06:42:09.843Z,25.11
2019-05-03T06:44:39.249Z,26.25
2019-05-03T06:47:10.535Z,25.15
2019-05-03T06:49:44.829Z,25.13
2019-05-03T06:52:14.899Z,25.63
2019-05-03T06:54:46.879Z,26.25
2019-05-03T06:57:18.319Z,26.84
2019-05-03T06:59:50.643Z,26.67
2019-05-03T07:02:41.197Z,26.72
2019-05-03T07:05:19.303Z,27.14
2019-05-03T07:07:54.825Z,27.93
2019-05-03T07:10:35.125Z,28.16
2019-05-03T07:13:08.759Z,26.01
2019-05-03T07:15:37.944Z,25.55
2019-05-03T07:18:08.461Z,25.90
2019-05-03T07:20:46.614Z,25.89
2019-05-03T07:23:18.880Z,25.93
2019-05-03T07:25:49.587Z,27.12
2019-05-03T07:28:21.701Z,25.85
2019-05-03T07:30:57.496Z,25.71
2019-05-03T07:33:35.580Z,26.34
2019-05-03T07:36:07.233Z,28.52
2019-05-03T07:38:39.600Z,27.50
2019-05-03T07:41:15.178Z,27.53
2019-05-03T07:43:50.153Z,26.88
2019-05-03T07:46:24.754Z,25.67
2019-05-03T07:48:55.517Z,25.75
2019-05-03T07:51:26.133Z,25.38
2019-05-03T07:53:56.763Z,26.67
2019-05-03T07:56:29.119Z,27.41
2019-05-03T07:59:05.656Z,27.79
2019-05-03T08:01:35.564Z,28.34
2019-05-03T08:04:06.394Z,28.53
2019-05-03T08:06:38.065Z,28.33
2019-05-03T08:09:08.956Z,27.05
2019-05-03T08:11:39.660Z,26.63
2019-05-03T08:14:10.524Z,24.69
2019-05-03T08:16:41.222Z,23.43
2019-05-03T08:19:11.740Z,23.11
2019-05-03T08:21:42.385Z,22.56
2019-05-03T08:24:15.100Z,22.39
2019-05-03T08:26:49.160Z,22.19
2019-05-03T08:29:19.837Z,22.90
2019-05-03T08:32:10.218Z,23.62
2019-05-03T08:34:48.298Z,24.17
2019-05-03T08:37:24.378Z,23.42
2019-05-03T08:39:55.207Z,23.34
2019-05-03T08:42:26.306Z,22.82
2019-05-03T08:44:57.965Z,23.02
2019-05-03T08:47:28.535Z,22.56
2019-05-03T08:49:59.114Z,22.58
2019-05-03T08:52:34.707Z,22.02
2019-05-03T08:55:06.642Z,22.47
2019-05-03T08:57:37.225Z,22.87
2019-05-03T09:00:09.270Z,23.62
2019-05-03T09:02:39.784Z,23.16
2019-05-03T09:05:10.582Z,22.60
2019-05-03T09:07:41.231Z,22.25
2019-05-03T09:10:19.086Z,22.62
2019-05-03T09:13:06.804Z,22.95
2019-05-03T09:15:39.269Z,23.42
2019-05-03T09:18:17.221Z,23.57
2019-05-03T09:20:46.571Z,23.37
2019-05-03T09:23:23.413Z,22.47
2019-05-03T09:25:56.848Z,21.92
2019-05-03T09:28:29.145Z,21.77
2019-05-03T09:30:59.549Z,21.60
2019-05-03T09:33:30.184Z,21.87
2019-05-03T09:36:00.704Z,22.13
2019-05-03T09:38:32.264Z,22.27
2019-05-03T09:41:05.327Z,22.47
2019-05-03T09:43:35.997Z,22.60
2019-05-03T09:46:07.593Z,22.61
2019-05-03T09:48:38.166Z,22.29
2019-05-03T09:51:09.948Z,22.59
2019-05-03T09:53:42.112Z,22.55
2019-05-03T09:56:15.512Z,22.71
2019-05-03T09:58:47.257Z,22.87
2019-05-03T10:01:19.596Z,23.12
2019-05-03T10:03:50.464Z,23.31
2019-05-03T10:06:25.489Z,23.02
2019-05-03T10:08:56.054Z,23.50
2019-05-03T10:11:26.607Z,23.49
2019-05-03T10:13:58.364Z,23.39
2019-05-03T10:16:31.519Z,23.21
2019-05-03T10:19:02.068Z,23.12
2019-05-03T10:21:35.558Z,22.92
2019-05-03T10:24:06.775Z,22.66
2019-05-03T10:26:37.632Z,22.69
2019-05-03T10:29:09.339Z,22.72
2019-05-03T10:31:41.665Z,22.85
2019-05-03T10:34:12.272Z,22.71
2019-05-03T10:36:44.151Z,23.00
2019-05-03T10:39:17.557Z,23.06
2019-05-03T10:41:48.539Z,23.00
2019-05-03T10:44:19.783Z,23.16
2019-05-03T10:47:05.506Z,22.78
2019-05-03T10:49:38.072Z,22.80
2019-05-03T10:52:10.400Z,22.60
2019-05-03T10:54:40.958Z,22.14
2019-05-03T10:57:17.349Z,21.22
2019-05-03T10:59:48.018Z,20.66
2019-05-03T11:02:22.809Z,20.51
2019-05-03T11:04:54.873Z,20.69
2019-05-03T11:07:25.845Z,20.76
2019-05-03T11:09:57.583Z,20.89
2019-05-03T11:12:29.896Z,21.06
2019-05-03T11:15:00.461Z,21.15
2019-05-03T11:17:36.266Z,21.21
2019-05-03T11:20:08.007Z,21.09
2019-05-03T11:22:38.741Z,20.89
2019-05-03T11:25:09.479Z,20.57
2019-05-03T11:27:44.740Z,20.56
2019-05-03T11:30:15.855Z,20.24
2019-05-03T11:33:00.163Z,20.37
2019-05-03T11:35:40.162Z,20.62
2019-05-03T11:38:22.409Z,20.89
2019-05-03T11:40:53.141Z,21.01
2019-05-03T11:43:24.783Z,21.24
2019-05-03T11:45:57.462Z,21.27
2019-05-03T11:48:27.956Z,21.26
2019-05-03T11:50:58.526Z,21.10
2019-05-03T11:53:29.104Z,20.40
2019-05-03T11:56:00.727Z,19.79
2019-05-03T11:58:31.192Z,19.35
2019-05-03T12:01:15.796Z,19.47
2019-05-03T12:03:45.191Z,19.89
2019-05-03T12:06:16.208Z,20.59
2019-05-03T12:08:46.722Z,21.01
2019-05-03T12:11:17.383Z,21.21
2019-05-03T12:13:47.954Z,21.32
2019-05-03T12:16:32.217Z,21.14
2019-05-03T12:18:53.980Z,20.98
2019-05-03T12:21:26.979Z,20.97
2019-05-03T12:23:57.674Z,20.98
2019-05-03T12:26:40.839Z,20.93
2019-05-03T12:29:00.801Z,21.14
2019-05-03T12:31:38.038Z,21.06
2019-05-03T12:34:05.939Z,20.97
2019-05-03T12:36:39.179Z,20.96
2019-05-03T12:39:23.184Z,20.98
2019-05-03T12:41:42.259Z,20.94
2019-05-03T12:44:12.788Z,20.95
2019-05-03T12:46:45.012Z,20.88
2019-05-03T12:49:15.616Z,20.83
2019-05-03T12:51:47.197Z,21.00
2019-05-03T12:54:18.846Z,21.02
2019-05-03T12:56:49.482Z,20.92
2019-05-03T12:59:22.611Z,20.92
2019-05-03T13:02:04.856Z,21.01
2019-05-03T13:04:40.283Z,21.06
2019-05-03T13:07:18.427Z,21.02
2019-05-03T13:09:49.007Z,21.11
2019-05-03T13:12:21.266Z,21.17
2019-05-03T13:14:51.889Z,21.13
2019-05-03T13:17:39.417Z,20.92
2019-05-03T13:20:14.496Z,20.83
2019-05-03T13:22:46.163Z,21.04
2019-05-03T13:25:17.046Z,20.94
2019-05-03T13:27:48.618Z,20.95
2019-05-03T13:30:19.242Z,20.97
2019-05-03T13:32:49.730Z,21.21
2019-05-03T13:35:20.428Z,21.26
2019-05-03T13:37:50.909Z,21.37
2019-05-03T13:40:21.604Z,21.47
2019-05-03T13:42:59.310Z,21.71
2019-05-03T13:45:24.799Z,21.70
2019-05-03T13:47:56.369Z,21.72
2019-05-03T13:50:28.943Z,21.76
2019-05-03T13:52:59.527Z,21.82
2019-05-03T13:55:31.129Z,21.77
2019-05-03T13:58:01.699Z,21.83
2019-05-03T14:00:34.449Z,22.10
2019-05-03T14:03:04.708Z,21.99
2019-05-03T14:05:35.430Z,21.76
2019-05-03T14:08:05.982Z,21.84
2019-05-03T14:10:37.563Z,21.98
2019-05-03T14:13:09.185Z,22.04
2019-05-03T14:15:39.726Z,22.02
2019-05-03T14:18:11.759Z,21.82
2019-05-03T14:20:47.775Z,21.34
2019-05-03T14:23:19.409Z,21.11
2019-05-03T14:25:49.950Z,20.89
2019-05-03T14:28:20.453Z,20.95
2019-05-03T14:30:52.028Z,20.70
2019-05-03T14:33:24.665Z,20.94
2019-05-03T14:35:54.872Z,20.78
2019-05-03T14:38:26.491Z,20.94
2019-05-03T14:40:57.062Z,21.05
2019-05-03T14:43:28.532Z,20.84
2019-05-03T14:45:59.955Z,20.82
2019-05-03T14:48:30.516Z,20.92
2019-05-03T14:51:01.021Z,20.94
2019-05-03T14:53:31.720Z,21.12
2019-05-03T14:56:04.997Z,20.95
2019-05-03T14:58:50.785Z,20.90
2019-05-03T15:01:31.999Z,20.72
2019-05-03T15:04:02.580Z,21.02
2019-05-03T15:06:35.424Z,20.95
2019-05-03T15:09:07.691Z,20.95
2019-05-03T15:11:41.574Z,20.92
2019-05-03T15:14:12.149Z,20.93
2019-05-03T15:16:42.624Z,20.91
2019-05-03T15:19:14.794Z,20.85
2019-05-03T15:21:46.590Z,20.68
2019-05-03T15:24:17.375Z,20.63
2019-05-03T15:26:48.011Z,20.59
2019-05-03T15:29:21.379Z,20.49
2019-05-03T15:31:55.248Z,20.37
2019-05-03T15:34:26.002Z,20.23
2019-05-03T15:36:57.649Z,20.21
2019-05-03T15:39:28.570Z,20.21
2019-05-03T15:41:59.146Z,20.23
2019-05-03T15:44:31.451Z,20.16
2019-05-03T15:47:09.431Z,20.22
2019-05-03T15:49:38.450Z,20.13
2019-05-03T15:52:09.201Z,20.21
2019-05-03T15:54:41.990Z,20.24
2019-05-03T15:57:14.502Z,20.31
2019-05-03T15:59:45.068Z,20.35
2019-05-03T16:02:15.665Z,20.40
2019-05-03T16:04:47.245Z,20.44
2019-05-03T16:07:17.815Z,20.56
2019-05-03T16:09:48.365Z,20.55
2019-05-03T16:12:18.870Z,20.63
2019-05-03T16:14:51.893Z,20.35
2019-05-03T16:17:24.462Z,20.05
2019-05-03T16:19:56.736Z,19.78
2019-05-03T16:22:27.326Z,19.64
2019-05-03T16:24:59.181Z,19.38
2019-05-03T16:27:31.343Z,19.39
2019-05-03T16:30:04.540Z,19.26
2019-05-03T16:32:36.577Z,19.14
2019-05-03T16:35:07.265Z,18.94
2019-05-03T16:37:59.437Z,18.92
2019-05-03T16:40:28.320Z,18.87
2019-05-03T16:43:25.587Z,18.75
2019-05-03T16:48:54.627Z,18.65
2019-05-03T16:51:31.525Z,18.55
2019-05-03T16:54:14.602Z,18.53
2019-05-03T16:56:58.037Z,18.40
2019-05-03T16:59:38.542Z,18.38
2019-05-03T17:02:20.070Z,18.30
2019-05-03T17:05:07.415Z,18.27
2019-05-03T17:07:39.723Z,18.22
2019-05-03T17:10:11.953Z,18.17
2019-05-03T17:12:45.316Z,18.13
2019-05-03T17:15:15.817Z,18.09
2019-05-03T17:17:47.010Z,18.06
2019-05-03T17:20:20.848Z,18.04
2019-05-03T17:22:55.384Z,17.97
2019-05-03T17:25:25.889Z,17.99
2019-05-03T17:27:56.489Z,18.00
2019-05-03T17:30:33.905Z,17.98
2019-05-03T17:32:59.869Z,17.94
2019-05-03T17:35:30.680Z,17.87
2019-05-03T17:38:02.529Z,17.80
2019-05-03T17:40:51.683Z,17.75
2019-05-03T17:43:23.884Z,17.67
2019-05-03T17:45:56.049Z,17.61
2019-05-03T17:48:27.722Z,17.55
2019-05-03T17:50:59.496Z,17.55
2019-05-03T17:53:39.256Z,17.50
2019-05-03T17:56:15.233Z,17.43
2019-05-03T17:58:47.548Z,17.42
2019-05-03T18:01:28.831Z,17.39
2019-05-03T18:04:17.378Z,17.29
2019-05-03T18:06:58.797Z,17.27
2019-05-03T18:09:30.916Z,17.20
2019-05-03T18:12:06.210Z,17.19
2019-05-03T18:14:36.838Z,17.16
2019-05-03T18:17:07.384Z,17.09
2019-05-03T18:19:37.977Z,17.07
2019-05-03T18:22:08.938Z,17.05
2019-05-03T18:24:40.530Z,17.03
2019-05-03T18:27:12.002Z,16.94
2019-05-03T18:29:42.584Z,16.89
2019-05-03T18:32:14.730Z,16.85
2019-05-03T18:34:45.533Z,16.84
2019-05-03T18:37:18.093Z,16.81
2019-05-03T18:39:49.040Z,16.80
2019-05-03T18:42:21.126Z,16.74
2019-05-03T18:44:55.125Z,16.73
2019-05-03T18:47:27.012Z,16.71
2019-05-03T18:49:57.491Z,16.65
2019-05-03T18:52:29.632Z,16.62
2019-05-03T18:55:01.675Z,16.60
2019-05-03T18:57:33.848Z,16.57
2019-05-03T19:00:08.215Z,16.55
2019-05-03T19:02:38.923Z,16.52
2019-05-03T19:05:09.499Z,16.53
2019-05-03T19:07:47.458Z,16.49
2019-05-03T19:10:24.687Z,16.46
2019-05-03T19:12:57.320Z,16.43
2019-05-03T19:15:29.247Z,16.37
2019-05-03T19:18:04.613Z,16.33
2019-05-03T19:20:36.109Z,16.27
2019-05-03T19:23:06.625Z,16.25
2019-05-03T19:25:46.300Z,16.22
2019-05-03T19:28:12.528Z,16.17
2019-05-03T19:30:45.491Z,16.15
2019-05-03T19:33:17.006Z,16.10
2019-05-03T19:35:48.544Z,16.10
2019-05-03T19:38:19.052Z,16.08
2019-05-03T19:40:49.508Z,16.07
2019-05-03T19:43:20.044Z,16.00
2019-05-03T19:45:51.595Z,16.00
2019-05-03T19:48:23.145Z,15.98
2019-05-03T19:50:54.883Z,15.98
2019-05-03T19:53:30.154Z,15.96
2019-05-03T19:56:01.759Z,15.92
2019-05-03T19:58:32.218Z,15.89
2019-05-03T20:01:07.305Z,15.83
2019-05-03T20:03:42.382Z,15.68
2019-05-03T20:06:14.526Z,15.58
2019-05-03T20:08:49.703Z,15.49
2019-05-03T20:11:20.193Z,15.47
2019-05-03T20:13:55.269Z,15.33
2019-05-03T20:16:28.804Z,15.23
2019-05-03T20:19:00.348Z,15.14
2019-05-03T20:21:30.843Z,15.05
2019-05-03T20:24:01.320Z,15.02
2019-05-03T20:26:31.799Z,14.93
2019-05-03T20:29:02.280Z,14.94
2019-05-03T20:31:32.823Z,14.90
2019-05-03T20:34:05.228Z,14.86
2019-05-03T20:36:36.439Z,14.83
2019-05-03T20:39:08.897Z,14.79
2019-05-03T20:41:40.997Z,14.79
2019-05-03T20:44:22.391Z,14.76
2019-05-03T20:46:55.042Z,14.74
2019-05-03T20:49:25.786Z,14.72
2019-05-03T20:51:56.309Z,14.78
2019-05-03T20:54:27.871Z,14.83
2019-05-03T20:56:58.439Z,14.80
2019-05-03T20:59:41.542Z,14.82
2019-05-03T21:02:01.048Z,14.79
2019-05-03T21:04:35.225Z,14.78
2019-05-03T21:07:05.715Z,14.76
2019-05-03T21:09:36.370Z,14.76
2019-05-03T21:12:08.876Z,14.81
2019-05-03T21:14:39.407Z,14.78
2019-05-03T21:17:12.517Z,14.78
2019-05-03T21:20:08.161Z,14.81
2019-05-03T21:22:39.610Z,14.84
2019-05-03T21:25:14.647Z,14.86
2019-05-03T21:27:45.129Z,14.93
2019-05-03T21:30:15.646Z,14.91
2019-05-03T21:32:46.206Z,14.94
2019-05-03T21:35:16.776Z,14.94
2019-05-03T21:37:49.240Z,14.93
2019-05-03T21:40:19.769Z,15.02
2019-05-03T21:42:52.306Z,14.98
2019-05-03T21:45:33.439Z,14.95
2019-05-03T21:48:07.524Z,14.92
2019-05-03T21:50:39.039Z,14.94
2019-05-03T21:53:09.728Z,14.90
2019-05-03T21:55:40.248Z,14.88
2019-05-03T21:58:11.796Z,14.86
2019-05-03T22:00:56.939Z,14.85
2019-05-03T22:03:28.400Z,14.86
2019-05-03T22:05:58.971Z,14.87
2019-05-03T22:08:30.424Z,14.86
2019-05-03T22:11:02.077Z,14.83
2019-05-03T22:13:32.559Z,14.80
2019-05-03T22:16:07.391Z,14.77
2019-05-03T22:18:38.518Z,14.76
2019-05-03T22:21:27.029Z,14.73
2019-05-03T22:24:01.906Z,14.67
2019-05-03T22:26:52.258Z,14.68
2019-05-03T22:29:25.225Z,14.71
2019-05-03T22:31:55.202Z,14.74
2019-05-03T22:34:25.938Z,14.73
2019-05-03T22:36:57.045Z,14.73
2019-05-03T22:39:27.597Z,14.76
2019-05-03T22:41:58.079Z,14.69
2019-05-03T22:44:28.517Z,14.67
2019-05-03T22:46:59.072Z,14.62
2019-05-03T22:49:29.549Z,14.61
2019-05-03T22:52:01.001Z,14.64
2019-05-03T22:54:31.463Z,14.64
2019-05-03T22:57:01.952Z,14.61
2019-05-03T22:59:34.311Z,14.63
2019-05-03T23:02:04.620Z,14.60
2019-05-03T23:04:35.594Z,14.58
2019-05-03T23:07:06.171Z,14.59
2019-05-03T23:09:37.680Z,14.56
2019-05-03T23:12:09.252Z,14.57
2019-05-03T23:14:39.683Z,14.57
2019-05-03T23:17:10.160Z,14.59
2019-05-03T23:19:44.911Z,14.59
2019-05-03T23:22:24.475Z,14.59
2019-05-03T23:24:54.941Z,14.62
2019-05-03T23:27:26.393Z,14.57
2019-05-03T23:29:56.933Z,14.54
2019-05-03T23:32:28.581Z,14.45
2019-05-03T23:35:00.149Z,14.34
2019-05-03T23:37:30.660Z,14.21
2019-05-03T23:40:04.432Z,14.13
2019-05-03T23:42:35.147Z,14.26
2019-05-03T23:45:09.426Z,14.21
2019-05-03T23:47:42.502Z,14.23
2019-05-03T23:50:16.695Z,14.12
2019-05-03T23:52:47.150Z,13.99
2019-05-03T23:55:20.204Z,13.87
2019-05-03T23:57:52.751Z,13.84
